Naples, FL (34101)

3:56 AM EST on February 09, 2016 (GMT -0500)
Lakewood | | Change Station
CLOSE
Current Station
Personal Weather Station
Location: Naples, FL
Elevation: 20 ft
Nearby Weather Stations
Active Advisory: Coastal Hazard Statement

Elev 20 ft 26.14 °N, 81.75 °W | Updated 16 seconds ago

Overcast
Overcast
64.6 °F
Feels Like 64.6 °F
N
2.7
Wind Variable Wind from NNE
Gusts 4.9 mph

Today
High -- | Low -- °F
--% Chance of Precip.
Yesterday
High -- | Low -- °F
Precip. -- in
Pressure 29.99 in
Visibility 9.0 miles
Clouds Mostly Cloudy 4300 ft
Overcast 5000 ft
Dew Point 52 °F
Humidity 65%
Rainfall 0.00 in
Snow Depth Not available.
7:07 AM 6:15 PM
New Moon, 1% visible
METAR KAPF 090853Z AUTO 30020G29KT 9SM BKN043 OVC050 18/11 A2999 RMK AO2 PK WND 30031/0834 SLP153 T01780106 53010
Pressure 29.99 in
Visibility 9.0 miles
Clouds Mostly Cloudy 4300 ft
Overcast 5000 ft
Dew Point 52 °F
Humidity 65%
Rainfall 0.00 in
Snow Depth Not available.
7:07 AM 6:15 PM
New Moon, 1% visible
METAR KAPF 090853Z AUTO 30020G29KT 9SM BKN043 OVC050 18/11 A2999 RMK AO2 PK WND 30031/0834 SLP153 T01780106 53010

10-Day Weather Forecast

Almanac

Astronomy

Feb. 09, 2016 Rise Set
Actual Time
Civil Twilight
Nautical Twilight
Astronomical Twilight
Moon
Length of Visible Light
Length of Day
Tomorrow will be .
, % of the Moon is Illuminated

Today's Extremes

State Highs State Lows

Community

WunderPhotos

Upload Photos

1,891,571 photos uploaded!

WunderBlog® & News

Nearby

Air Quality

  Air Quality AQ Index Pollutant
Not available.

Snow Depth

Station Depth Elevation

Earthquake Activity

City Distance Mag. Time & Date
Minimum magnitude displayed is 2.5.

Coastal Water Temperatures

Place Temperature

Stations

Nearby Weather Stations

Station Location Temp. Windchill Dew Point Humidity Wind Precip. Elev Updated Type
                   

Watches & Warnings

Coastal Hazard Statement
Issued: 3:55 PM EST Feb. 8, 2016 – National Weather Service

... High rip current risk remains in effect from 7 PM EST this
evening through Tuesday evening...

* timing... tonight through Tuesday evening.

* Impacts... strong rip currents creating extremely dangerous
conditions for swimmers.

Precautionary/preparedness actions...

There is a high risk of rip currents.

Rip currents are powerful channels of water flowing quickly away
from shore... which occur most often at low spots or breaks in The
Sandbar and in the vicinity of structures such as groins...
jetties and piers. Heed the advice of lifeguards... beach patrol
flags and signs.

If you become caught in a rip current... Yell for help. Remain
calm... do not exhaust yourself and stay afloat while waiting for
help. If you have to swim out of a rip current... swim parallel to
shore and back toward the beach when possible. Do not attempt to
swim directly against a rip current as you will tire quickly.